Costa Fascinosa — ICPO — position and weather

sailwx.info

Track history (hours):
 
Tides and Currents Weather Stations Pressure Air Temp Water Temp Dewpoint Dewpoint Depression Visibility Wind Speed Wind Dir Waves Ship Positions

Costa Fascinosa

Last reported at 2019-Jul-22 13:29 UTC. Time now 2019-Jul-22 13:46 UTC.
Position N 40°50' E 014°16'.

Length 180 m; draft 6.2 m.

Type: Passenger vessel. MMSI: 247313500.

Date/timePositionNaut miles runAvg speedWind from/ knotsBaromVisibWave heightAir tempDewpointWater temp
2019-Jul-22 13:29N 40°50' E 014°16'0 0.0
2019-Jul-22 12:59N 40°50' E 014°16'0 0.0
2019-Jul-22 12:29N 40°50' E 014°16'0 0.0
2019-Jul-22 11:59N 40°50' E 014°16'0 0.0
2019-Jul-22 11:29N 40°50' E 014°16'0 0.0
2019-Jul-22 10:59N 40°50' E 014°16'0 0.5
2019-Jul-22 10:31N 40°50' E 014°16'4 8.8
2019-Jul-22 10:01N 40°46' E 014°17'816.3
2019-Jul-22 09:31N 40°41' E 014°09'917.3
2019-Jul-22 09:01N 40°38' E 013°58'917.3
2019-Jul-22 08:31N 40°39' E 013°47'917.7
2019-Jul-22 08:01N 40°41' E 013°36'918.1
2019-Jul-22 07:31N 40°43' E 013°24'918.2
2019-Jul-22 07:01N 40°45' E 013°12'918.1
2019-Jul-22 06:31N 40°47' E 013°01'1020.3
2019-Jul-22 06:00N 40°52' E 012°48'1020.6
2019-Jul-22 05:30N 40°57' E 012°37'1020.7
2019-Jul-22 05:01N 41°03' E 012°26'1020.7
2019-Jul-22 04:31N 41°09' E 012°14'1020.9
2019-Jul-22 04:01N 41°14' E 012°02'1121.1
2019-Jul-22 03:30N 41°20' E 011°51'1121.2
2019-Jul-22 03:01N 41°26' E 011°39'1020.9
2019-Jul-22 02:31N 41°32' E 011°27'1020.6
2019-Jul-22 02:01N 41°38' E 011°16'1020.5
2019-Jul-22 01:31N 41°43' E 011°04'1020.5
2019-Jul-22 01:01N 41°49' E 010°53'1020.5
2019-Jul-22 00:31N 41°54' E 010°41'1020.6
2019-Jul-22 00:00N 42°00' E 010°30'1020.5
2019-Jul-21 23:30N 42°06' E 010°18'1020.5
2019-Jul-21 23:01N 42°12' E 010°07'1020.7
2019-Jul-21 22:31N 42°19' E 009°57'1020.2
2019-Jul-21 22:00N 42°28' E 009°50'1020.8
2019-Jul-21 21:31N 42°37' E 009°45'1020.4
2019-Jul-21 21:00N 42°47' E 009°40'1020.1
2019-Jul-21 20:31N 42°56' E 009°36'1019.9
2019-Jul-21 20:01N 43°06' E 009°32'1020.3
2019-Jul-21 19:31N 43°15' E 009°26'1020.5
2019-Jul-21 19:01N 43°23' E 009°18'1020.5
2019-Jul-21 18:31N 43°32' E 009°10'1020.5
2019-Jul-21 18:01N 43°41' E 009°03'1020.4
2019-Jul-21 17:31N 43°50' E 008°56'1020.5
2019-Jul-21 17:01N 43°58' E 008°48'1020.3
2019-Jul-21 16:31N 44°07' E 008°42'1019.7
2019-Jul-21 16:01N 44°15' E 008°34'5 9.2
2019-Jul-21 15:30N 44°19' E 008°30'0 0.5
2019-Jul-21 14:59N 44°19' E 008°29'0 0.0
2019-Jul-21 14:29N 44°19' E 008°29'0 0.0
2019-Jul-21 13:59N 44°19' E 008°29'0 0.0
2019-Jul-21 13:28N 44°19' E 008°29'0 0.0
2019-Jul-21 12:58N 44°19' E 008°29'0 0.0
2019-Jul-21 12:28N 44°19' E 008°29'0 0.0
2019-Jul-21 11:58N 44°19' E 008°29'0 0.0
2019-Jul-21 11:28N 44°19' E 008°29'0 0.0
2019-Jul-21 10:58N 44°19' E 008°29'0 0.0
2019-Jul-21 10:28N 44°19' E 008°29'0 0.0
2019-Jul-21 10:00N 44°19' E 008°29'0 0.0
2019-Jul-21 09:29N 44°19' E 008°29'0 0.0
2019-Jul-21 08:58N 44°19' E 008°29'0 0.0
2019-Jul-21 08:28N 44°19' E 008°29'0 0.0
2019-Jul-21 07:58N 44°19' E 008°29'0 0.0
2019-Jul-21 07:28N 44°19' E 008°29'0 0.0
2019-Jul-21 06:58N 44°19' E 008°29'0 0.0
2019-Jul-21 06:30N 44°19' E 008°29'0 0.5
2019-Jul-21 06:01N 44°19' E 008°30'3 6.1
2019-Jul-21 05:30N 44°16' E 008°32'917.7
2019-Jul-21 05:00N 44°08' E 008°27'1020.0
2019-Jul-21 04:30N 44°00' E 008°19'1121.2
2019-Jul-21 03:59N 43°51' E 008°09'1021.1
2019-Jul-21 03:30N 43°44' E 007°60'1020.9
2019-Jul-21 03:00N 43°37' E 007°50'1020.7
2019-Jul-21 02:30N 43°30' E 007°38'1121.2
2019-Jul-21 02:00N 43°24' E 007°27'1121.2
2019-Jul-21 01:30N 43°18' E 007°15'1121.1
2019-Jul-21 01:00N 43°11' E 007°03'1121.2
2019-Jul-21 00:30N 43°05' E 006°51'1121.2
2019-Jul-21 00:00N 43°00' E 006°39'1020.6
2019-Jul-20 23:30N 42°54' E 006°27'1020.1
2019-Jul-20 23:00N 42°49' E 006°15'1020.2
2019-Jul-20 22:30N 42°44' E 006°03'1020.3
2019-Jul-20 22:00N 42°40' E 005°51'1020.4
2019-Jul-20 21:30N 42°35' E 005°39'1020.7
2019-Jul-20 21:00N 42°30' E 005°26'1020.8
2019-Jul-20 20:30N 42°25' E 005°14'1020.7
2019-Jul-20 20:00N 42°20' E 005°02'1020.7
2019-Jul-20 19:30N 42°15' E 004°49'1020.6
2019-Jul-20 19:00N 42°11' E 004°37'1020.5
2019-Jul-20 18:30N 42°06' E 004°25'1020.5
2019-Jul-20 18:00N 42°01' E 004°13'1020.6
2019-Jul-20 17:30N 41°56' E 004°00'1020.5
2019-Jul-20 17:00N 41°51' E 003°48'1120.6
2019-Jul-20 16:29N 41°45' E 003°36'1020.2
2019-Jul-20 16:00N 41°41' E 003°25'1020.1
2019-Jul-20 15:30N 41°37' E 003°12'1020.4
2019-Jul-20 15:00N 41°32' E 003°00'1020.4
2019-Jul-20 14:30N 41°28' E 002°48'1121.0
2019-Jul-20 14:00N 41°22' E 002°36'1020.7
2019-Jul-20 13:30N 41°18' E 002°24'918.5
2019-Jul-20 13:00N 41°15' E 002°12'611.1
2019-Jul-20 12:30N 41°21' E 002°10'1 1.0
2019-Jul-20 11:59N 41°21' E 002°10'0 0.0
2019-Jul-20 11:28N 41°21' E 002°10'0 0.0
2019-Jul-20 11:00N 41°21' E 002°10'0 0.0
2019-Jul-20 10:27N 41°21' E 002°10'0 0.0
2019-Jul-20 09:59N 41°21' E 002°10'0 0.0
2019-Jul-20 09:28N 41°21' E 002°10'0 0.0
2019-Jul-20 08:58N 41°21' E 002°10'0 0.0
2019-Jul-20 08:30N 41°21' E 002°10'0 0.0
2019-Jul-20 08:00N 41°21' E 002°10'0 0.0
2019-Jul-20 07:29N 41°21' E 002°10'0 0.0
2019-Jul-20 06:59N 41°21' E 002°10'0 0.0
2019-Jul-20 06:28N 41°21' E 002°10'0 0.0
2019-Jul-20 06:00N 41°21' E 002°10'0 0.0
2019-Jul-20 05:30N 41°21' E 002°10'2 3.3
2019-Jul-20 05:00N 41°20' E 002°10'611.8
2019-Jul-20 04:31N 41°14' E 002°11'714.6
2019-Jul-20 04:01N 41°06' E 002°11'611.2
2019-Jul-20 03:31N 41°01' E 002°11'611.1
2019-Jul-20 03:00N 40°55' E 002°12'2510.9
2019-Jul-20 00:44N 40°31' E 002°13'2310.8
2019-Jul-19 22:38N 40°08' E 002°14'710.8
2019-Jul-19 22:00N 40°01' E 002°13'1511.3
2019-Jul-19 20:42N 39°47' E 002°14'312.3
2019-Jul-19 20:28N 39°44' E 002°14'1012.1
2019-Jul-19 19:38N 39°33' E 002°15'311.9
2019-Jul-19 19:24N 39°31' E 002°17'611.6
2019-Jul-19 18:52N 39°28' E 002°24'411.7
2019-Jul-19 18:30N 39°26' E 002°29'611.2
2019-Jul-19 18:00N 39°28' E 002°36'510.3
2019-Jul-19 17:30N 39°32' E 002°39'2 3.2
2019-Jul-19 17:00N 39°33' E 002°38'0 0.0
2019-Jul-19 16:29N 39°33' E 002°38'0 0.0
2019-Jul-19 15:59N 39°33' E 002°38'0 0.0
2019-Jul-19 15:29N 39°33' E 002°38'0 0.0
2019-Jul-19 14:59N 39°33' E 002°38'0 0.0
2019-Jul-19 14:29N 39°33' E 002°38'0 0.0
2019-Jul-19 13:59N 39°33' E 002°38'0 0.0
2019-Jul-19 13:29N 39°33' E 002°38'0 0.0
2019-Jul-19 12:58N 39°33' E 002°38'0 0.0
2019-Jul-19 12:29N 39°33' E 002°38'0 0.0
2019-Jul-19 11:58N 39°33' E 002°38'0 0.0
2019-Jul-19 11:30N 39°33' E 002°38'0 0.0
2019-Jul-19 10:58N 39°33' E 002°38'0 0.0
2019-Jul-19 10:30N 39°33' E 002°38'0 0.0
2019-Jul-19 09:59N 39°33' E 002°38'0 0.0
2019-Jul-19 09:29N 39°33' E 002°38'0 0.0
2019-Jul-19 08:58N 39°33' E 002°38'0 0.0
2019-Jul-19 08:30N 39°33' E 002°38'0 0.0
2019-Jul-19 08:00N 39°33' E 002°38'0 0.0
2019-Jul-19 07:29N 39°33' E 002°38'0 0.0
2019-Jul-19 06:56N 39°33' E 002°38'0 0.3
2019-Jul-19 06:30N 39°33' E 002°38'4 7.6
2019-Jul-19 06:00N 39°29' E 002°37'917.6
2019-Jul-19 05:30N 39°22' E 002°30'918.3
2019-Jul-19 05:00N 39°16' E 002°21'917.7
2019-Jul-19 04:30N 39°10' E 002°13'3317.5
2019-Jul-19 02:38N 38°55' E 001°36'218.5
2019-Jul-19 02:30N 38°54' E 001°33'5 8.8
2019-Jul-19 01:58N 38°54' E 001°27'0 0.0
2019-Jul-19 01:26N 38°54' E 001°27'0 0.0
2019-Jul-19 00:59N 38°54' E 001°27'0 0.0
2019-Jul-19 00:26N 38°54' E 001°27'0 0.0
2019-Jul-18 23:59N 38°54' E 001°27'0 0.0
2019-Jul-18 23:29N 38°54' E 001°27'0 0.0
2019-Jul-18 22:58N 38°54' E 001°27'0 0.0
2019-Jul-18 22:28N 38°54' E 001°27'0 0.0
2019-Jul-18 21:58N 38°54' E 001°27'0 0.0
2019-Jul-18 21:28N 38°54' E 001°27'0 0.0
2019-Jul-18 21:00N 38°54' E 001°27'0 0.0
2019-Jul-18 20:29N 38°54' E 001°27'0 0.0
2019-Jul-18 19:59N 38°54' E 001°27'0 0.0
2019-Jul-18 19:26N 38°54' E 001°27'0 0.0
2019-Jul-18 18:59N 38°54' E 001°27'0 0.0
2019-Jul-18 18:29N 38°54' E 001°27'0 0.0
2019-Jul-18 17:59N 38°54' E 001°27'0 0.0
2019-Jul-18 17:29N 38°54' E 001°27'0 0.0
2019-Jul-18 16:59N 38°54' E 001°27'0 0.0
2019-Jul-18 16:29N 38°54' E 001°27'0 0.0
2019-Jul-18 15:50N 38°54' E 001°27'0 0.0
2019-Jul-18 15:19N 38°54' E 001°27'0 0.0
2019-Jul-18 14:51N 38°54' E 001°27'0 0.0
2019-Jul-18 14:30N 38°54' E 001°27'0 0.0
2019-Jul-18 14:00N 38°54' E 001°27'0 0.0
2019-Jul-18 13:27N 38°54' E 001°27'0 0.0
2019-Jul-18 13:00N 38°54' E 001°27'0 0.0
2019-Jul-18 12:20N 38°54' E 001°27'0 0.0
2019-Jul-18 12:00N 38°54' E 001°27'0 0.0
2019-Jul-18 11:27N 38°54' E 001°27'0 0.0
2019-Jul-18 10:55N 38°54' E 001°27'0 0.0
2019-Jul-18 10:24N 38°54' E 001°27'0 0.0
2019-Jul-18 09:55N 38°54' E 001°27'0 0.0
2019-Jul-18 09:30N 38°54' E 001°27'0 0.0
2019-Jul-18 09:00N 38°54' E 001°27'0 0.0
2019-Jul-18 08:30N 38°54' E 001°27'0 0.0
2019-Jul-18 07:56N 38°54' E 001°27'0 0.0
2019-Jul-18 07:30N 38°54' E 001°27'0 0.0
2019-Jul-18 07:00N 38°54' E 001°27'0 0.0
2019-Jul-18 06:30N 38°54' E 001°27'0 0.0
2019-Jul-18 05:59N 38°54' E 001°27'0 0.2
2019-Jul-18 05:26N 38°54' E 001°27'4 9.0
2019-Jul-18 04:59N 38°51' E 001°29'714.1
2019-Jul-18 04:29N 38°51' E 001°38'3212.6
2019-Jul-18 01:55N 38°50' E 002°19'512.2
2019-Jul-18 01:30N 38°50' E 002°26'712.1
2019-Jul-18 00:54N 38°50' E 002°35'512.0
2019-Jul-18 00:28N 38°50' E 002°42'911.9
2019-Jul-17 23:45N 38°50' E 002°53'312.0
2019-Jul-17 23:29N 38°50' E 002°57'1112.4
2019-Jul-17 22:35N 38°50' E 003°11'112.8
2019-Jul-17 22:30N 38°50' E 003°13'612.8
2019-Jul-17 22:00N 38°50' E 003°21'712.8
2019-Jul-17 21:28N 38°50' E 003°30'612.7
2019-Jul-17 21:00N 38°50' E 003°37'612.5
2019-Jul-17 20:30N 38°50' E 003°45'612.3
2019-Jul-17 20:00N 38°50' E 003°53'5 5.3
2019-Jul-17 18:59N 38°50' E 004°00'40317.7
2019-Jul-16 20:15N 38°20' E 012°34'417.4
2019-Jul-16 20:00N 38°19' E 012°40'817.1
2019-Jul-16 19:30N 38°19' E 012°50'917.2
2019-Jul-16 19:00N 38°19' E 013°01'917.2
2019-Jul-16 18:30N 38°18' E 013°12'816.3
2019-Jul-16 18:00N 38°17' E 013°23'815.7
2019-Jul-16 17:30N 38°09' E 013°26'3 5.9
2019-Jul-16 16:58N 38°08' E 013°22'0 0.0
2019-Jul-16 16:29N 38°08' E 013°22'0 0.0
2019-Jul-16 15:59N 38°08' E 013°22'0 0.0
2019-Jul-16 15:29N 38°08' E 013°22'0 0.0
2019-Jul-16 14:58N 38°08' E 013°22'0 0.0
2019-Jul-16 14:28N 38°08' E 013°22'0 0.0
2019-Jul-16 13:58N 38°08' E 013°22'0 0.0
2019-Jul-16 13:29N 38°08' E 013°22'0 0.0
2019-Jul-16 12:57N 38°08' E 013°22'0 0.0
2019-Jul-16 12:29N 38°08' E 013°22'0 0.0
2019-Jul-16 11:59N 38°08' E 013°22'0 0.0
2019-Jul-16 11:30N 38°08' E 013°22'0 0.0
2019-Jul-16 11:00N 38°08' E 013°22'0 0.0
2019-Jul-16 10:30N 38°08' E 013°22'0 0.0
2019-Jul-16 10:00N 38°08' E 013°22'0 0.0
2019-Jul-16 09:30N 38°08' E 013°22'0 0.0
2019-Jul-16 09:00N 38°08' E 013°22'0 0.0
2019-Jul-16 08:30N 38°08' E 013°22'0 0.0
2019-Jul-16 08:00N 38°08' E 013°22'0 0.0
2019-Jul-16 07:30N 38°08' E 013°22'0 0.0
2019-Jul-16 07:00N 38°08' E 013°22'0 0.3
2019-Jul-16 06:31N 38°08' E 013°22'3 6.1
2019-Jul-16 06:00N 38°10' E 013°25'815.9
2019-Jul-16 05:30N 38°17' E 013°28'816.4
2019-Jul-16 05:00N 38°25' E 013°30'816.7
2019-Jul-16 04:30N 38°34' E 013°32'916.9
2019-Jul-16 04:00N 38°42' E 013°35'7116.6
2019-Jul-15 23:43N 39°51' E 013°56'416.9
2019-Jul-15 23:27N 39°56' E 013°57'815.7
2019-Jul-15 22:56N 40°04' E 013°59'511.7
2019-Jul-15 22:30N 40°08' E 014°01'712.3
2019-Jul-15 21:58N 40°15' E 014°02'612.3
2019-Jul-15 21:30N 40°21' E 014°03'612.5
2019-Jul-15 21:00N 40°27' E 014°05'612.4
2019-Jul-15 20:30N 40°32' E 014°08'612.1
2019-Jul-15 20:00N 40°38' E 014°11'612.2
2019-Jul-15 19:30N 40°44' E 014°14'611.9
2019-Jul-15 19:00N 40°49' E 014°17'1 2.8
2019-Jul-15 18:29N 40°51' E 014°16'0 0.0
2019-Jul-15 17:59N 40°51' E 014°16'0 0.0
2019-Jul-15 17:28N 40°51' E 014°16'0 0.0
2019-Jul-15 16:58N 40°51' E 014°16'0 0.0
2019-Jul-15 16:28N 40°51' E 014°16'0 0.0
2019-Jul-15 15:58N 40°51' E 014°16'0 0.0
2019-Jul-15 15:28N 40°51' E 014°16'0 0.0
2019-Jul-15 14:58N 40°51' E 014°16'0 0.0
2019-Jul-15 14:28N 40°51' E 014°16'0 0.0
2019-Jul-15 13:58N 40°51' E 014°16'0 0.0
2019-Jul-15 13:27N 40°51' E 014°16'0 0.0
2019-Jul-15 13:00N 40°51' E 014°16'0 0.0
2019-Jul-15 12:30N 40°51' E 014°16'0 0.0
2019-Jul-15 11:57N 40°51' E 014°16'0 0.0
2019-Jul-15 11:30N 40°51' E 014°16'0 0.0
2019-Jul-15 11:00N 40°51' E 014°16'0 0.0
2019-Jul-15 10:30N 40°51' E 014°16'1 1.9
2019-Jul-15 10:00N 40°50' E 014°17'613.0
2019-Jul-15 09:31N 40°43' E 014°16'1020.5
2019-Jul-15 09:01N 40°39' E 014°04'1020.2
2019-Jul-15 08:31N 40°38' E 013°51'1020.5
2019-Jul-15 08:00N 40°41' E 013°37'1420.5
2019-Jul-15 07:18N 40°44' E 013°19'3019.8
2019-Jul-15 05:46N 40°55' E 012°42'12220.3
2019-Jul-14 23:44N 42°02' E 010°25'520.4
2019-Jul-14 23:30N 42°05' E 010°20'3020.5
2019-Jul-14 22:03N 42°26' E 009°51'220.9
2019-Jul-14 21:57N 42°28' E 009°50'921.0
2019-Jul-14 21:31N 42°36' E 009°46'1020.5
2019-Jul-14 21:01N 42°46' E 009°40'1020.2
2019-Jul-14 20:31N 42°55' E 009°37'1020.2
2019-Jul-14 20:01N 43°05' E 009°33'1020.7
2019-Jul-14 19:30N 43°14' E 009°26'1020.7
2019-Jul-14 19:01N 43°23' E 009°18'1020.4
2019-Jul-14 18:31N 43°32' E 009°11'1020.3
2019-Jul-14 18:01N 43°40' E 009°03'1020.3
2019-Jul-14 17:31N 43°48' E 008°55'1020.4
2019-Jul-14 17:01N 43°57' E 008°48'1020.3
2019-Jul-14 16:31N 44°06' E 008°41'1020.0
2019-Jul-14 16:01N 44°15' E 008°34'510.7
2019-Jul-14 15:30N 44°19' E 008°30'1 1.0
2019-Jul-14 15:00N 44°19' E 008°29'0 0.0
2019-Jul-14 14:30N 44°19' E 008°29'0 0.0
2019-Jul-14 13:59N 44°19' E 008°29'0 0.0
2019-Jul-14 13:28N 44°19' E 008°29'0 0.0
2019-Jul-14 12:58N 44°19' E 008°29'0 0.0
2019-Jul-14 12:28N 44°19' E 008°29'0 0.0
2019-Jul-14 12:00N 44°19' E 008°29'0 0.0
2019-Jul-14 11:29N 44°19' E 008°29'0 0.0
2019-Jul-14 10:59N 44°19' E 008°29'0 0.0
2019-Jul-14 10:29N 44°19' E 008°29'0 0.0
2019-Jul-14 09:59N 44°19' E 008°29'0 0.0
2019-Jul-14 09:29N 44°19' E 008°29'0 0.0
2019-Jul-14 08:59N 44°19' E 008°29'0 0.0
2019-Jul-14 08:29N 44°19' E 008°29'0 0.0
2019-Jul-14 07:59N 44°19' E 008°29'0 0.0
2019-Jul-14 07:29N 44°19' E 008°29'0 0.0
2019-Jul-14 06:59N 44°19' E 008°29'0 0.0
2019-Jul-14 06:30N 44°19' E 008°29'1 2.8
2019-Jul-14 06:00N 44°19' E 008°31'611.4
2019-Jul-14 05:30N 44°13' E 008°31'1019.4
2019-Jul-14 05:00N 44°05' E 008°24'1119.6
2019-Jul-14 04:26N 43°55' E 008°16'920.4
2019-Jul-14 04:00N 43°48' E 008°08'1020.4
2019-Jul-14 03:30N 43°41' E 007°59'1020.5
2019-Jul-14 03:00N 43°35' E 007°47'1020.6
2019-Jul-14 02:30N 43°29' E 007°35'1020.5
2019-Jul-14 02:00N 43°23' E 007°24'1020.3
2019-Jul-14 01:30N 43°17' E 007°13'1020.0
2019-Jul-14 01:00N 43°11' E 007°02'1019.7
2019-Jul-14 00:30N 43°05' E 006°51'1019.6
2019-Jul-14 00:00N 42°59' E 006°40'1019.4
2019-Jul-13 23:31N 42°55' E 006°29'1019.8
2019-Jul-13 23:00N 42°50' E 006°17'1020.3
2019-Jul-13 22:30N 42°45' E 006°05'1320.7
2019-Jul-13 21:53N 42°39' E 005°49'15421.2
2019-Jul-13 14:37N 41°27' E 002°46'221.0
2019-Jul-13 14:30N 41°26' E 002°43'1020.7
2019-Jul-13 14:00N 41°21' E 002°31'1020.8
2019-Jul-13 13:30N 41°16' E 002°19'714.0
2019-Jul-13 13:00N 41°18' E 002°10'3 5.6
2019-Jul-13 12:30N 41°21' E 002°10'0 0.1
2019-Jul-13 11:59N 41°21' E 002°10'0 0.0
2019-Jul-13 11:28N 41°21' E 002°10'0 0.0
2019-Jul-13 10:58N 41°21' E 002°10'0 0.0
2019-Jul-13 10:30N 41°21' E 002°10'0 0.0
2019-Jul-13 09:59N 41°21' E 002°10'0 0.0
2019-Jul-13 09:28N 41°21' E 002°10'0 0.0
2019-Jul-13 08:58N 41°21' E 002°10'0 0.0
2019-Jul-13 08:28N 41°21' E 002°10'0 0.0
2019-Jul-13 08:00N 41°21' E 002°10'0 0.0
2019-Jul-13 07:27N 41°21' E 002°10'0 0.0
2019-Jul-13 06:59N 41°21' E 002°10'0 0.0
2019-Jul-13 06:28N 41°21' E 002°10'0 0.0
2019-Jul-13 06:00N 41°21' E 002°10'0 0.5
2019-Jul-13 05:30N 41°21' E 002°10'3 5.6
2019-Jul-13 05:00N 41°18' E 002°11'611.2
2019-Jul-13 04:31N 41°12' E 002°11'611.8
2019-Jul-13 04:00N 41°07' E 002°11'611.5
2019-Jul-13 03:30N 41°01' E 002°11'611.6
2019-Jul-13 03:00N 40°55' E 002°11'611.6
2019-Jul-13 02:30N 40°49' E 002°12'711.3
2019-Jul-13 01:55N 40°43' E 002°12'511.6
2019-Jul-13 01:30N 40°38' E 002°13'611.8
2019-Jul-13 00:59N 40°32' E 002°14'1411.9
2019-Jul-12 23:49N 40°18' E 002°15'1511.5
2019-Jul-12 22:31N 40°03' E 002°14'011.3
2019-Jul-12 22:30N 40°03' E 002°14'611.4
2019-Jul-12 22:00N 39°57' E 002°13'611.6
2019-Jul-12 21:30N 39°51' E 002°14'611.7
2019-Jul-12 21:00N 39°45' E 002°14'611.8
2019-Jul-12 20:30N 39°39' E 002°14'611.7
2019-Jul-12 20:00N 39°34' E 002°14'810.8
2019-Jul-12 19:18N 39°28' E 002°21'514.6
2019-Jul-12 18:59N 39°26' E 002°26'4 8.5
2019-Jul-12 18:30N 39°25' E 002°31'510.9
2019-Jul-12 18:00N 39°28' E 002°36'5 9.9
2019-Jul-12 17:30N 39°33' E 002°39'1 1.4
2019-Jul-12 17:00N 39°33' E 002°38'0 0.0
2019-Jul-12 16:30N 39°33' E 002°38'0 0.0
2019-Jul-12 15:59N 39°33' E 002°38'0 0.0
2019-Jul-12 15:28N 39°33' E 002°38'0 0.0
2019-Jul-12 15:00N 39°33' E 002°38'0 0.0
2019-Jul-12 14:30N 39°33' E 002°38'0 0.0
2019-Jul-12 13:59N 39°33' E 002°38'  
Track history (hours):
 
Tides and Currents Weather Stations Pressure Air Temp Water Temp Dewpoint Dewpoint Depression Visibility Wind Speed Wind Dir Waves Ship Positions

Costa Fascinosa

Last reported at 2019-Jul-22 13:29 UTC. Time now 2019-Jul-22 13:46 UTC.
Position N 40°50' E 014°16'.

Length 180 m; draft 6.2 m.

Type: Passenger vessel. MMSI: 247313500.

Date/timePositionNaut miles runAvg speedWind from/ knotsBaromVisibWave heightAir tempDewpointWater temp
2019-Jul-22 13:29N 40°50' E 014°16'0 0.0
2019-Jul-22 12:59N 40°50' E 014°16'0 0.0
2019-Jul-22 12:29N 40°50' E 014°16'0 0.0
2019-Jul-22 11:59N 40°50' E 014°16'0 0.0
2019-Jul-22 11:29N 40°50' E 014°16'0 0.0
2019-Jul-22 10:59N 40°50' E 014°16'0 0.5
2019-Jul-22 10:31N 40°50' E 014°16'4 8.8
2019-Jul-22 10:01N 40°46' E 014°17'816.3
2019-Jul-22 09:31N 40°41' E 014°09'917.3
2019-Jul-22 09:01N 40°38' E 013°58'917.3
2019-Jul-22 08:31N 40°39' E 013°47'917.7
2019-Jul-22 08:01N 40°41' E 013°36'918.1
2019-Jul-22 07:31N 40°43' E 013°24'918.2
2019-Jul-22 07:01N 40°45' E 013°12'918.1
2019-Jul-22 06:31N 40°47' E 013°01'1020.3
2019-Jul-22 06:00N 40°52' E 012°48'1020.6
2019-Jul-22 05:30N 40°57' E 012°37'1020.7
2019-Jul-22 05:01N 41°03' E 012°26'1020.7
2019-Jul-22 04:31N 41°09' E 012°14'1020.9
2019-Jul-22 04:01N 41°14' E 012°02'1121.1
2019-Jul-22 03:30N 41°20' E 011°51'1121.2
2019-Jul-22 03:01N 41°26' E 011°39'1020.9
2019-Jul-22 02:31N 41°32' E 011°27'1020.6
2019-Jul-22 02:01N 41°38' E 011°16'1020.5
2019-Jul-22 01:31N 41°43' E 011°04'1020.5
2019-Jul-22 01:01N 41°49' E 010°53'1020.5
2019-Jul-22 00:31N 41°54' E 010°41'1020.6
2019-Jul-22 00:00N 42°00' E 010°30'1020.5
2019-Jul-21 23:30N 42°06' E 010°18'1020.5
2019-Jul-21 23:01N 42°12' E 010°07'1020.7
2019-Jul-21 22:31N 42°19' E 009°57'1020.2
2019-Jul-21 22:00N 42°28' E 009°50'1020.8
2019-Jul-21 21:31N 42°37' E 009°45'1020.4
2019-Jul-21 21:00N 42°47' E 009°40'1020.1
2019-Jul-21 20:31N 42°56' E 009°36'1019.9
2019-Jul-21 20:01N 43°06' E 009°32'1020.3
2019-Jul-21 19:31N 43°15' E 009°26'1020.5
2019-Jul-21 19:01N 43°23' E 009°18'1020.5
2019-Jul-21 18:31N 43°32' E 009°10'1020.5
2019-Jul-21 18:01N 43°41' E 009°03'1020.4
2019-Jul-21 17:31N 43°50' E 008°56'1020.5
2019-Jul-21 17:01N 43°58' E 008°48'1020.3
2019-Jul-21 16:31N 44°07' E 008°42'1019.7
2019-Jul-21 16:01N 44°15' E 008°34'5 9.2
2019-Jul-21 15:30N 44°19' E 008°30'0 0.5
2019-Jul-21 14:59N 44°19' E 008°29'0 0.0
2019-Jul-21 14:29N 44°19' E 008°29'0 0.0
2019-Jul-21 13:59N 44°19' E 008°29'0 0.0
2019-Jul-21 13:28N 44°19' E 008°29'0 0.0
2019-Jul-21 12:58N 44°19' E 008°29'0 0.0
2019-Jul-21 12:28N 44°19' E 008°29'0 0.0
2019-Jul-21 11:58N 44°19' E 008°29'0 0.0
2019-Jul-21 11:28N 44°19' E 008°29'0 0.0
2019-Jul-21 10:58N 44°19' E 008°29'0 0.0
2019-Jul-21 10:28N 44°19' E 008°29'0 0.0
2019-Jul-21 10:00N 44°19' E 008°29'0 0.0
2019-Jul-21 09:29N 44°19' E 008°29'0 0.0
2019-Jul-21 08:58N 44°19' E 008°29'0 0.0
2019-Jul-21 08:28N 44°19' E 008°29'0 0.0
2019-Jul-21 07:58N 44°19' E 008°29'0 0.0
2019-Jul-21 07:28N 44°19' E 008°29'0 0.0
2019-Jul-21 06:58N 44°19' E 008°29'0 0.0
2019-Jul-21 06:30N 44°19' E 008°29'0 0.5
2019-Jul-21 06:01N 44°19' E 008°30'3 6.1
2019-Jul-21 05:30N 44°16' E 008°32'917.7
2019-Jul-21 05:00N 44°08' E 008°27'1020.0
2019-Jul-21 04:30N 44°00' E 008°19'1121.2
2019-Jul-21 03:59N 43°51' E 008°09'1021.1
2019-Jul-21 03:30N 43°44' E 007°60'1020.9
2019-Jul-21 03:00N 43°37' E 007°50'1020.7
2019-Jul-21 02:30N 43°30' E 007°38'1121.2
2019-Jul-21 02:00N 43°24' E 007°27'1121.2
2019-Jul-21 01:30N 43°18' E 007°15'1121.1
2019-Jul-21 01:00N 43°11' E 007°03'1121.2
2019-Jul-21 00:30N 43°05' E 006°51'1121.2
2019-Jul-21 00:00N 43°00' E 006°39'1020.6
2019-Jul-20 23:30N 42°54' E 006°27'1020.1
2019-Jul-20 23:00N 42°49' E 006°15'1020.2
2019-Jul-20 22:30N 42°44' E 006°03'1020.3
2019-Jul-20 22:00N 42°40' E 005°51'1020.4
2019-Jul-20 21:30N 42°35' E 005°39'1020.7
2019-Jul-20 21:00N 42°30' E 005°26'1020.8
2019-Jul-20 20:30N 42°25' E 005°14'1020.7
2019-Jul-20 20:00N 42°20' E 005°02'1020.7
2019-Jul-20 19:30N 42°15' E 004°49'1020.6
2019-Jul-20 19:00N 42°11' E 004°37'1020.5
2019-Jul-20 18:30N 42°06' E 004°25'1020.5
2019-Jul-20 18:00N 42°01' E 004°13'1020.6
2019-Jul-20 17:30N 41°56' E 004°00'1020.5
2019-Jul-20 17:00N 41°51' E 003°48'1120.6
2019-Jul-20 16:29N 41°45' E 003°36'1020.2
2019-Jul-20 16:00N 41°41' E 003°25'1020.1
2019-Jul-20 15:30N 41°37' E 003°12'1020.4
2019-Jul-20 15:00N 41°32' E 003°00'1020.4
2019-Jul-20 14:30N 41°28' E 002°48'1121.0
2019-Jul-20 14:00N 41°22' E 002°36'1020.7
2019-Jul-20 13:30N 41°18' E 002°24'918.5
2019-Jul-20 13:00N 41°15' E 002°12'611.1
2019-Jul-20 12:30N 41°21' E 002°10'1 1.0
2019-Jul-20 11:59N 41°21' E 002°10'0 0.0
2019-Jul-20 11:28N 41°21' E 002°10'0 0.0
2019-Jul-20 11:00N 41°21' E 002°10'0 0.0
2019-Jul-20 10:27N 41°21' E 002°10'0 0.0
2019-Jul-20 09:59N 41°21' E 002°10'0 0.0
2019-Jul-20 09:28N 41°21' E 002°10'0 0.0
2019-Jul-20 08:58N 41°21' E 002°10'0 0.0
2019-Jul-20 08:30N 41°21' E 002°10'0 0.0
2019-Jul-20 08:00N 41°21' E 002°10'0 0.0
2019-Jul-20 07:29N 41°21' E 002°10'0 0.0
2019-Jul-20 06:59N 41°21' E 002°10'0 0.0
2019-Jul-20 06:28N 41°21' E 002°10'0 0.0
2019-Jul-20 06:00N 41°21' E 002°10'0 0.0
2019-Jul-20 05:30N 41°21' E 002°10'2 3.3
2019-Jul-20 05:00N 41°20' E 002°10'611.8
2019-Jul-20 04:31N 41°14' E 002°11'714.6
2019-Jul-20 04:01N 41°06' E 002°11'611.2
2019-Jul-20 03:31N 41°01' E 002°11'611.1
2019-Jul-20 03:00N 40°55' E 002°12'2510.9
2019-Jul-20 00:44N 40°31' E 002°13'2310.8
2019-Jul-19 22:38N 40°08' E 002°14'710.8
2019-Jul-19 22:00N 40°01' E 002°13'1511.3
2019-Jul-19 20:42N 39°47' E 002°14'312.3
2019-Jul-19 20:28N 39°44' E 002°14'1012.1
2019-Jul-19 19:38N 39°33' E 002°15'311.9
2019-Jul-19 19:24N 39°31' E 002°17'611.6
2019-Jul-19 18:52N 39°28' E 002°24'411.7
2019-Jul-19 18:30N 39°26' E 002°29'611.2
2019-Jul-19 18:00N 39°28' E 002°36'510.3
2019-Jul-19 17:30N 39°32' E 002°39'2 3.2
2019-Jul-19 17:00N 39°33' E 002°38'0 0.0
2019-Jul-19 16:29N 39°33' E 002°38'0 0.0
2019-Jul-19 15:59N 39°33' E 002°38'0 0.0
2019-Jul-19 15:29N 39°33' E 002°38'0 0.0
2019-Jul-19 14:59N 39°33' E 002°38'0 0.0
2019-Jul-19 14:29N 39°33' E 002°38'0 0.0
2019-Jul-19 13:59N 39°33' E 002°38'0 0.0
2019-Jul-19 13:29N 39°33' E 002°38'0 0.0
2019-Jul-19 12:58N 39°33' E 002°38'0 0.0
2019-Jul-19 12:29N 39°33' E 002°38'0 0.0
2019-Jul-19 11:58N 39°33' E 002°38'0 0.0
2019-Jul-19 11:30N 39°33' E 002°38'0 0.0
2019-Jul-19 10:58N 39°33' E 002°38'0 0.0
2019-Jul-19 10:30N 39°33' E 002°38'0 0.0
2019-Jul-19 09:59N 39°33' E 002°38'0 0.0
2019-Jul-19 09:29N 39°33' E 002°38'0 0.0
2019-Jul-19 08:58N 39°33' E 002°38'0 0.0
2019-Jul-19 08:30N 39°33' E 002°38'0 0.0
2019-Jul-19 08:00N 39°33' E 002°38'0 0.0
2019-Jul-19 07:29N 39°33' E 002°38'0 0.0
2019-Jul-19 06:56N 39°33' E 002°38'0 0.3
2019-Jul-19 06:30N 39°33' E 002°38'4 7.6
2019-Jul-19 06:00N 39°29' E 002°37'917.6
2019-Jul-19 05:30N 39°22' E 002°30'918.3
2019-Jul-19 05:00N 39°16' E 002°21'917.7
2019-Jul-19 04:30N 39°10' E 002°13'3317.5
2019-Jul-19 02:38N 38°55' E 001°36'218.5
2019-Jul-19 02:30N 38°54' E 001°33'5 8.8
2019-Jul-19 01:58N 38°54' E 001°27'0 0.0
2019-Jul-19 01:26N 38°54' E 001°27'0 0.0
2019-Jul-19 00:59N 38°54' E 001°27'0 0.0
2019-Jul-19 00:26N 38°54' E 001°27'0 0.0
2019-Jul-18 23:59N 38°54' E 001°27'0 0.0
2019-Jul-18 23:29N 38°54' E 001°27'0 0.0
2019-Jul-18 22:58N 38°54' E 001°27'0 0.0
2019-Jul-18 22:28N 38°54' E 001°27'0 0.0
2019-Jul-18 21:58N 38°54' E 001°27'0 0.0
2019-Jul-18 21:28N 38°54' E 001°27'0 0.0
2019-Jul-18 21:00N 38°54' E 001°27'0 0.0
2019-Jul-18 20:29N 38°54' E 001°27'0 0.0
2019-Jul-18 19:59N 38°54' E 001°27'0 0.0
2019-Jul-18 19:26N 38°54' E 001°27'0 0.0
2019-Jul-18 18:59N 38°54' E 001°27'0 0.0
2019-Jul-18 18:29N 38°54' E 001°27'0 0.0
2019-Jul-18 17:59N 38°54' E 001°27'0 0.0
2019-Jul-18 17:29N 38°54' E 001°27'0 0.0
2019-Jul-18 16:59N 38°54' E 001°27'0 0.0
2019-Jul-18 16:29N 38°54' E 001°27'0 0.0
2019-Jul-18 15:50N 38°54' E 001°27'0 0.0
2019-Jul-18 15:19N 38°54' E 001°27'0 0.0
2019-Jul-18 14:51N 38°54' E 001°27'0 0.0
2019-Jul-18 14:30N 38°54' E 001°27'0 0.0
2019-Jul-18 14:00N 38°54' E 001°27'0 0.0
2019-Jul-18 13:27N 38°54' E 001°27'0 0.0
2019-Jul-18 13:00N 38°54' E 001°27'0 0.0
2019-Jul-18 12:20N 38°54' E 001°27'0 0.0
2019-Jul-18 12:00N 38°54' E 001°27'0 0.0
2019-Jul-18 11:27N 38°54' E 001°27'0 0.0
2019-Jul-18 10:55N 38°54' E 001°27'0 0.0
2019-Jul-18 10:24N 38°54' E 001°27'0 0.0
2019-Jul-18 09:55N 38°54' E 001°27'0 0.0
2019-Jul-18 09:30N 38°54' E 001°27'0 0.0
2019-Jul-18 09:00N 38°54' E 001°27'0 0.0
2019-Jul-18 08:30N 38°54' E 001°27'0 0.0
2019-Jul-18 07:56N 38°54' E 001°27'0 0.0
2019-Jul-18 07:30N 38°54' E 001°27'0 0.0
2019-Jul-18 07:00N 38°54' E 001°27'0 0.0
2019-Jul-18 06:30N 38°54' E 001°27'0 0.0
2019-Jul-18 05:59N 38°54' E 001°27'0 0.2
2019-Jul-18 05:26N 38°54' E 001°27'4 9.0
2019-Jul-18 04:59N 38°51' E 001°29'714.1
2019-Jul-18 04:29N 38°51' E 001°38'3212.6
2019-Jul-18 01:55N 38°50' E 002°19'512.2
2019-Jul-18 01:30N 38°50' E 002°26'712.1
2019-Jul-18 00:54N 38°50' E 002°35'512.0
2019-Jul-18 00:28N 38°50' E 002°42'911.9
2019-Jul-17 23:45N 38°50' E 002°53'312.0
2019-Jul-17 23:29N 38°50' E 002°57'1112.4
2019-Jul-17 22:35N 38°50' E 003°11'112.8
2019-Jul-17 22:30N 38°50' E 003°13'612.8
2019-Jul-17 22:00N 38°50' E 003°21'712.8
2019-Jul-17 21:28N 38°50' E 003°30'612.7
2019-Jul-17 21:00N 38°50' E 003°37'612.5
2019-Jul-17 20:30N 38°50' E 003°45'612.3
2019-Jul-17 20:00N 38°50' E 003°53'5 5.3
2019-Jul-17 18:59N 38°50' E 004°00'40317.7
2019-Jul-16 20:15N 38°20' E 012°34'417.4
2019-Jul-16 20:00N 38°19' E 012°40'817.1
2019-Jul-16 19:30N 38°19' E 012°50'917.2
2019-Jul-16 19:00N 38°19' E 013°01'917.2
2019-Jul-16 18:30N 38°18' E 013°12'816.3
2019-Jul-16 18:00N 38°17' E 013°23'815.7
2019-Jul-16 17:30N 38°09' E 013°26'3 5.9
2019-Jul-16 16:58N 38°08' E 013°22'0 0.0
2019-Jul-16 16:29N 38°08' E 013°22'0 0.0
2019-Jul-16 15:59N 38°08' E 013°22'0 0.0
2019-Jul-16 15:29N 38°08' E 013°22'0 0.0
2019-Jul-16 14:58N 38°08' E 013°22'0 0.0
2019-Jul-16 14:28N 38°08' E 013°22'0 0.0
2019-Jul-16 13:58N 38°08' E 013°22'0 0.0
2019-Jul-16 13:29N 38°08' E 013°22'0 0.0
2019-Jul-16 12:57N 38°08' E 013°22'0 0.0
2019-Jul-16 12:29N 38°08' E 013°22'0 0.0
2019-Jul-16 11:59N 38°08' E 013°22'0 0.0
2019-Jul-16 11:30N 38°08' E 013°22'0 0.0
2019-Jul-16 11:00N 38°08' E 013°22'0 0.0
2019-Jul-16 10:30N 38°08' E 013°22'0 0.0
2019-Jul-16 10:00N 38°08' E 013°22'0 0.0
2019-Jul-16 09:30N 38°08' E 013°22'0 0.0
2019-Jul-16 09:00N 38°08' E 013°22'0 0.0
2019-Jul-16 08:30N 38°08' E 013°22'0 0.0
2019-Jul-16 08:00N 38°08' E 013°22'0 0.0
2019-Jul-16 07:30N 38°08' E 013°22'0 0.0
2019-Jul-16 07:00N 38°08' E 013°22'0 0.3
2019-Jul-16 06:31N 38°08' E 013°22'3 6.1
2019-Jul-16 06:00N 38°10' E 013°25'815.9
2019-Jul-16 05:30N 38°17' E 013°28'816.4
2019-Jul-16 05:00N 38°25' E 013°30'816.7
2019-Jul-16 04:30N 38°34' E 013°32'916.9
2019-Jul-16 04:00N 38°42' E 013°35'7116.6
2019-Jul-15 23:43N 39°51' E 013°56'416.9
2019-Jul-15 23:27N 39°56' E 013°57'815.7
2019-Jul-15 22:56N 40°04' E 013°59'511.7
2019-Jul-15 22:30N 40°08' E 014°01'712.3
2019-Jul-15 21:58N 40°15' E 014°02'612.3
2019-Jul-15 21:30N 40°21' E 014°03'612.5
2019-Jul-15 21:00N 40°27' E 014°05'612.4
2019-Jul-15 20:30N 40°32' E 014°08'612.1
2019-Jul-15 20:00N 40°38' E 014°11'612.2
2019-Jul-15 19:30N 40°44' E 014°14'611.9
2019-Jul-15 19:00N 40°49' E 014°17'1 2.8
2019-Jul-15 18:29N 40°51' E 014°16'0 0.0
2019-Jul-15 17:59N 40°51' E 014°16'0 0.0
2019-Jul-15 17:28N 40°51' E 014°16'0 0.0
2019-Jul-15 16:58N 40°51' E 014°16'0 0.0
2019-Jul-15 16:28N 40°51' E 014°16'0 0.0
2019-Jul-15 15:58N 40°51' E 014°16'0 0.0
2019-Jul-15 15:28N 40°51' E 014°16'0 0.0
2019-Jul-15 14:58N 40°51' E 014°16'0 0.0
2019-Jul-15 14:28N 40°51' E 014°16'0 0.0
2019-Jul-15 13:58N 40°51' E 014°16'0 0.0
2019-Jul-15 13:27N 40°51' E 014°16'0 0.0
2019-Jul-15 13:00N 40°51' E 014°16'0 0.0
2019-Jul-15 12:30N 40°51' E 014°16'0 0.0
2019-Jul-15 11:57N 40°51' E 014°16'0 0.0
2019-Jul-15 11:30N 40°51' E 014°16'0 0.0
2019-Jul-15 11:00N 40°51' E 014°16'0 0.0
2019-Jul-15 10:30N 40°51' E 014°16'1 1.9
2019-Jul-15 10:00N 40°50' E 014°17'613.0
2019-Jul-15 09:31N 40°43' E 014°16'1020.5
2019-Jul-15 09:01N 40°39' E 014°04'1020.2
2019-Jul-15 08:31N 40°38' E 013°51'1020.5
2019-Jul-15 08:00N 40°41' E 013°37'1420.5
2019-Jul-15 07:18N 40°44' E 013°19'3019.8
2019-Jul-15 05:46N 40°55' E 012°42'12220.3
2019-Jul-14 23:44N 42°02' E 010°25'520.4
2019-Jul-14 23:30N 42°05' E 010°20'3020.5
2019-Jul-14 22:03N 42°26' E 009°51'220.9
2019-Jul-14 21:57N 42°28' E 009°50'921.0
2019-Jul-14 21:31N 42°36' E 009°46'1020.5
2019-Jul-14 21:01N 42°46' E 009°40'1020.2
2019-Jul-14 20:31N 42°55' E 009°37'1020.2
2019-Jul-14 20:01N 43°05' E 009°33'1020.7
2019-Jul-14 19:30N 43°14' E 009°26'1020.7
2019-Jul-14 19:01N 43°23' E 009°18'1020.4
2019-Jul-14 18:31N 43°32' E 009°11'1020.3
2019-Jul-14 18:01N 43°40' E 009°03'1020.3
2019-Jul-14 17:31N 43°48' E 008°55'1020.4
2019-Jul-14 17:01N 43°57' E 008°48'1020.3
2019-Jul-14 16:31N 44°06' E 008°41'1020.0
2019-Jul-14 16:01N 44°15' E 008°34'510.7
2019-Jul-14 15:30N 44°19' E 008°30'1 1.0
2019-Jul-14 15:00N 44°19' E 008°29'0 0.0
2019-Jul-14 14:30N 44°19' E 008°29'0 0.0
2019-Jul-14 13:59N 44°19' E 008°29'0 0.0
2019-Jul-14 13:28N 44°19' E 008°29'0 0.0
2019-Jul-14 12:58N 44°19' E 008°29'0 0.0
2019-Jul-14 12:28N 44°19' E 008°29'0 0.0
2019-Jul-14 12:00N 44°19' E 008°29'0 0.0
2019-Jul-14 11:29N 44°19' E 008°29'0 0.0
2019-Jul-14 10:59N 44°19' E 008°29'0 0.0
2019-Jul-14 10:29N 44°19' E 008°29'0 0.0
2019-Jul-14 09:59N 44°19' E 008°29'0 0.0
2019-Jul-14 09:29N 44°19' E 008°29'0 0.0
2019-Jul-14 08:59N 44°19' E 008°29'0 0.0
2019-Jul-14 08:29N 44°19' E 008°29'0 0.0
2019-Jul-14 07:59N 44°19' E 008°29'0 0.0
2019-Jul-14 07:29N 44°19' E 008°29'0 0.0
2019-Jul-14 06:59N 44°19' E 008°29'0 0.0
2019-Jul-14 06:30N 44°19' E 008°29'1 2.8
2019-Jul-14 06:00N 44°19' E 008°31'611.4
2019-Jul-14 05:30N 44°13' E 008°31'1019.4
2019-Jul-14 05:00N 44°05' E 008°24'1119.6
2019-Jul-14 04:26N 43°55' E 008°16'920.4
2019-Jul-14 04:00N 43°48' E 008°08'1020.4
2019-Jul-14 03:30N 43°41' E 007°59'1020.5
2019-Jul-14 03:00N 43°35' E 007°47'1020.6
2019-Jul-14 02:30N 43°29' E 007°35'1020.5
2019-Jul-14 02:00N 43°23' E 007°24'1020.3
2019-Jul-14 01:30N 43°17' E 007°13'1020.0
2019-Jul-14 01:00N 43°11' E 007°02'1019.7
2019-Jul-14 00:30N 43°05' E 006°51'1019.6
2019-Jul-14 00:00N 42°59' E 006°40'1019.4
2019-Jul-13 23:31N 42°55' E 006°29'1019.8
2019-Jul-13 23:00N 42°50' E 006°17'1020.3
2019-Jul-13 22:30N 42°45' E 006°05'1320.7
2019-Jul-13 21:53N 42°39' E 005°49'15421.2
2019-Jul-13 14:37N 41°27' E 002°46'221.0
2019-Jul-13 14:30N 41°26' E 002°43'1020.7
2019-Jul-13 14:00N 41°21' E 002°31'1020.8
2019-Jul-13 13:30N 41°16' E 002°19'714.0
2019-Jul-13 13:00N 41°18' E 002°10'3 5.6
2019-Jul-13 12:30N 41°21' E 002°10'0 0.1
2019-Jul-13 11:59N 41°21' E 002°10'0 0.0
2019-Jul-13 11:28N 41°21' E 002°10'0 0.0
2019-Jul-13 10:58N 41°21' E 002°10'0 0.0
2019-Jul-13 10:30N 41°21' E 002°10'0 0.0
2019-Jul-13 09:59N 41°21' E 002°10'0 0.0
2019-Jul-13 09:28N 41°21' E 002°10'0 0.0
2019-Jul-13 08:58N 41°21' E 002°10'0 0.0
2019-Jul-13 08:28N 41°21' E 002°10'0 0.0
2019-Jul-13 08:00N 41°21' E 002°10'0 0.0
2019-Jul-13 07:27N 41°21' E 002°10'0 0.0
2019-Jul-13 06:59N 41°21' E 002°10'0 0.0
2019-Jul-13 06:28N 41°21' E 002°10'0 0.0
2019-Jul-13 06:00N 41°21' E 002°10'0 0.5
2019-Jul-13 05:30N 41°21' E 002°10'3 5.6
2019-Jul-13 05:00N 41°18' E 002°11'611.2
2019-Jul-13 04:31N 41°12' E 002°11'611.8
2019-Jul-13 04:00N 41°07' E 002°11'611.5
2019-Jul-13 03:30N 41°01' E 002°11'611.6
2019-Jul-13 03:00N 40°55' E 002°11'611.6
2019-Jul-13 02:30N 40°49' E 002°12'711.3
2019-Jul-13 01:55N 40°43' E 002°12'511.6
2019-Jul-13 01:30N 40°38' E 002°13'611.8
2019-Jul-13 00:59N 40°32' E 002°14'1411.9
2019-Jul-12 23:49N 40°18' E 002°15'1511.5
2019-Jul-12 22:31N 40°03' E 002°14'011.3
2019-Jul-12 22:30N 40°03' E 002°14'611.4
2019-Jul-12 22:00N 39°57' E 002°13'611.6
2019-Jul-12 21:30N 39°51' E 002°14'611.7
2019-Jul-12 21:00N 39°45' E 002°14'611.8
2019-Jul-12 20:30N 39°39' E 002°14'611.7
2019-Jul-12 20:00N 39°34' E 002°14'810.8
2019-Jul-12 19:18N 39°28' E 002°21'514.6
2019-Jul-12 18:59N 39°26' E 002°26'4 8.5
2019-Jul-12 18:30N 39°25' E 002°31'510.9
2019-Jul-12 18:00N 39°28' E 002°36'5 9.9
2019-Jul-12 17:30N 39°33' E 002°39'1 1.4
2019-Jul-12 17:00N 39°33' E 002°38'0 0.0
2019-Jul-12 16:30N 39°33' E 002°38'0 0.0
2019-Jul-12 15:59N 39°33' E 002°38'0 0.0
2019-Jul-12 15:28N 39°33' E 002°38'0 0.0
2019-Jul-12 15:00N 39°33' E 002°38'0 0.0
2019-Jul-12 14:30N 39°33' E 002°38'0 0.0
2019-Jul-12 13:59N 39°33' E 002°38'  

Dump ship's entire track history